Date,TemperatureHighF,TemperatureAvgF,TemperatureLowF,DewpointHighF,DewpointAvgF,DewpointLowF,HumidityHigh,HumidityAvg,HumidityLow,PressureMaxIn,PressureMinIn,WindSpeedMaxMPH,WindSpeedAvgMPH,GustSpeedMaxMPH,PrecipitationSumIn
2013-1-1,47.8,40.3,37.0,41.0,27.6,16.9,83,62,40,28.09,27.91,15,4,15,0.00
2013-1-3,39.4,34.3,30.9,19.9,17.6,15.3,57,50,41,28.22,28.13,12,6,12,0.11
2013-1-4,36.0,30.7,25.2,17.6,15.9,12.7,60,54,43,28.30,28.19,22,8,22,0.00
2013-1-5,44.6,35.4,25.2,28.8,18.9,13.5,68,52,31,28.37,28.19,13,3,13,0.00
2013-1-6,42.1,36.9,32.5,32.4,27.5,24.4,77,69,60,28.20,28.07,17,4,17,0.01
2013-1-9,55.9,52.8,48.7,47.3,44.9,39.0,85,75,62,28.46,28.36,15,4,15,0.06
2013-1-10,57.7,47.3,36.0,40.3,31.1,26.2,80,55,34,28.54,28.39,11,2,11,0.00
2013-1-11,47.3,43.4,39.4,39.2,35.7,32.0,95,75,59,28.40,28.23,10,3,10,0.05
2013-1-14,49.3,45.7,39.6,46.4,43.5,37.9,95,92,87,28.25,28.11,15,3,15,0.50
2013-1-15,42.6,40.3,37.2,41.9,39.3,35.4,98,96,93,28.24,28.07,7,2,7,1.20
2013-1-16,50.0,41.9,36.3,47.8,39.8,34.5,98,92,86,28.07,27.94,12,2,12,0.26
2013-1-17,43.2,37.8,31.3,41.4,34.1,26.1,94,86,72,28.18,28.01,12,2,12,0.66
2013-1-18,35.1,29.5,20.1,26.1,20.8,15.8,83,70,55,28.46,28.18,8,1,8,0.11
2013-1-19,45.7,29.4,14.7,32.4,19.3,9.3,87,68,42,28.41,28.10,8,2,8,0.38
2013-1-20,48.2,39.4,32.0,29.7,23.6,15.3,68,54,35,28.10,28.01,20,6,20,0.15
2013-1-21,46.2,35.0,24.3,27.3,13.3,-1.7,75,43,22,28.08,27.89,22,7,22,0.00
2013-1-22,25.5,19.1,14.2,-0.6,-9.7,-15.2,37,27,21,28.19,27.97,21,10,21,0.00
2013-1-23,32.7,23.1,14.7,17.2,-0.2,-12.3,56,37,22,28.25,27.97,17,7,17,0.04
2013-1-24,37.9,27.4,20.5,23.2,8.4,-7.1,57,45,27,28.32,27.93,32,13,32,0.00
2013-2-26,38.3,37.2,34.3,37.0,34.7,30.9,95,91,87,27.75,27.61,11,2,11,0.24
2013-2-27,43.5,39.4,37.0,37.2,32.9,28.4,95,78,58,27.78,27.63,20,6,20,0.00
2013-3-2,30.9,28.1,25.7,17.4,13.5,10.0,57,54,50,27.93,27.85,21,9,21,0.00
2013-3-3,30.0,25.7,23.5,15.3,11.0,7.3,64,53,47,27.97,27.89,19,8,19,0.00
2013-3-4,38.3,26.8,22.8,12.7,8.0,3.4,62,46,24,28.09,27.96,26,10,26,0.00
2013-3-7,35.8,34.0,32.9,23.9,21.6,19.9,65,60,56,28.25,28.19,17,7,17,0.00
2013-3-8,45.7,37.3,32.5,23.4,20.8,17.6,62,51,38,28.33,28.19,23,8,23,0.00
2013-3-9,62.2,42.5,23.7,29.8,23.3,15.4,76,50,22,28.34,28.22,11,2,11,0.00
2013-3-10,63.5,39.1,29.1,36.0,28.8,25.0,86,70,29,28.28,28.19,11,1,11,0.00
2013-3-12,50.2,44.0,37.2,36.3,32.0,28.0,74,63,50,28.01,27.91,19,-2,19,0.00
2013-3-13,41.5,35.4,27.3,33.4,23.1,12.4,89,61,42,28.15,27.99,27,7,27,0.00
2013-3-14,44.2,32.7,24.1,16.5,12.0,7.7,69,44,23,28.24,28.12,24,9,24,0.00
2013-3-15,59.2,37.9,29.7,34.0,18.8,10.2,57,46,36,28.16,27.95,17,4,17,0.00
2013-3-18,34.3,33.3,32.7,33.4,32.9,32.4,99,98,94,28.02,27.83,12,2,12,0.28
2013-3-19,54.5,43.0,33.6,41.4,23.6,4.5,99,56,20,28.04,27.82,33,9,33,0.01
2013-3-20,48.0,37.0,30.4,12.7,6.5,-0.6,41,28,21,28.07,27.92,21,6,21,0.00
2013-3-23,54.7,46.5,34.5,30.9,27.1,22.3,72,48,33,27.98,27.91,11,3,11,0.07
2013-3-24,37.4,33.0,30.4,33.3,28.6,22.5,99,84,55,27.94,27.56,11,2,11,0.04
2013-3-25,38.5,32.2,28.6,31.6,25.9,20.1,99,79,51,27.80,27.52,24,6,24,0.38
2013-3-26,39.9,33.6,32.0,26.4,23.6,21.7,75,66,56,27.98,27.80,22,9,22,0.01
2013-3-28,46.6,41.8,35.6,23.7,21.7,18.7,54,45,34,28.27,28.19,18,6,18,0.00
2013-3-29,55.6,40.3,24.1,31.1,22.3,17.6,85,54,24,28.30,28.16,17,3,17,0.00
2013-3-30,63.0,45.4,27.5,37.9,28.4,21.9,95,58,22,28.25,28.07,13,2,13,0.00
2013-3-31,55.8,45.2,40.5,53.2,40.9,30.6,99,86,56,28.08,27.83,11,1,11,0.25
2013-4-3,53.4,46.9,36.1,15.3,10.9,6.3,36,23,20,28.32,28.22,15,5,15,0.00
2013-4-4,42.3,34.0,30.9,32.4,22.2,11.8,99,65,34,28.32,28.00,12,2,12,0.04
2013-4-5,52.7,38.5,32.4,40.8,34.1,32.2,99,87,48,28.01,27.95,15,3,15,0.41
2013-4-8,78.8,71.5,61.9,52.5,49.4,43.9,64,47,31,28.12,28.04,14,3,14,0.00
2013-4-9,84.9,66.2,46.8,56.1,50.7,46.2,99,62,32,28.21,28.08,15,2,15,0.00
2013-4-10,87.3,70.0,51.3,60.3,53.6,43.9,97,61,24,28.14,27.98,17,3,17,0.09
2013-4-11,83.3,66.0,53.6,60.4,54.8,49.8,96,71,35,28.00,27.87,15,2,15,0.00
2013-4-13,70.2,63.9,54.3,33.4,27.7,20.1,42,26,16,28.06,27.93,25,8,25,0.00
2013-4-14,76.5,61.0,40.8,43.2,37.3,31.3,84,45,24,28.13,28.02,13,3,13,0.00
2013-4-15,63.3,54.6,50.7,54.3,51.9,41.0,99,92,44,28.25,28.07,13,2,13,0.41
2013-4-16,77.2,60.3,55.4,60.3,56.6,54.1,99,89,54,28.31,28.22,9,1,9,0.00
2013-4-19,66.7,56.4,46.4,64.2,52.4,36.0,99,87,67,27.95,27.73,17,7,17,0.93
2013-4-20,58.8,47.5,38.3,36.0,27.8,19.0,69,49,24,28.30,27.95,22,9,22,0.00
2013-4-21,57.0,41.7,31.6,36.0,31.6,29.1,96,71,38,28.47,28.30,12,2,12,0.00
2013-4-24,75.4,64.4,50.0,57.9,53.8,45.0,86,70,45,28.14,27.94,23,7,23,0.08
2013-4-25,64.8,50.6,38.5,45.1,29.9,17.4,87,51,17,28.33,28.14,21,6,21,0.13
2013-4-26,67.5,54.7,37.6,41.5,33.3,25.3,86,47,25,28.45,28.31,11,2,11,0.01
2013-4-27,64.0,54.1,49.1,46.2,43.7,41.0,88,69,46,28.37,28.32,5,1,5,0.00
2013-4-29,67.6,66.7,65.5,55.6,54.7,54.0,68,65,63,28.04,28.00,11,4,11,0.09
2013-4-30,74.3,66.3,58.1,58.1,55.5,53.4,86,69,55,28.25,28.12,12,3,12,0.13
2013-5-1,69.1,59.8,54.9,55.8,52.5,45.1,97,78,54,28.37,28.23,16,4,16,0.00
2013-5-2,65.8,56.3,52.0,54.3,47.0,42.4,84,71,61,28.37,28.31,11,4,11,0.00
2013-5-5,52.3,51.1,50.0,51.1,48.0,43.3,99,90,73,28.07,28.01,20,6,20,0.02
2013-5-6,57.4,53.1,50.4,57.0,52.5,50.0,99,98,96,28.02,27.89,17,5,17,0.64
2013-5-7,55.2,52.7,50.9,54.3,52.1,50.5,99,98,97,27.97,27.91,15,2,15,0.34
2013-5-10,83.1,66.4,59.4,61.9,59.3,55.6,99,82,40,28.05,27.99,15,2,15,0.22
2013-5-11,74.5,63.1,57.9,63.5,58.9,53.8,99,87,57,28.01,27.85,76,3,76,0.12
2013-5-12,59.5,53.6,47.5,53.8,37.0,26.8,87,56,30,28.09,27.90,25,8,25,0.00
2013-5-13,57.2,47.2,39.2,38.8,30.4,22.8,83,55,29,28.17,28.08,17,4,18,0.00
2013-5-15,88.0,80.2,66.2,61.2,58.3,54.5,74,49,33,28.02,27.96,17,7,17,0.00
2013-5-16,81.9,70.2,58.6,59.4,56.4,53.4,88,63,42,28.09,27.99,18,5,18,0.00
2013-5-17,82.2,68.0,55.4,64.8,59.6,54.5,99,77,42,28.18,28.07,11,2,11,0.00
2013-5-18,68.9,64.1,60.8,65.5,62.8,60.3,99,95,85,28.21,28.14,8,2,8,0.32
2013-5-21,87.4,80.4,68.5,67.8,65.1,61.3,82,61,46,28.07,27.99,11,2,11,0.00
2013-5-22,86.4,67.5,58.3,67.5,62.4,57.9,99,86,45,28.07,27.96,17,2,17,0.30
2013-5-23,76.3,65.3,60.6,67.3,62.6,60.1,99,92,60,28.01,27.95,12,1,12,0.06
2013-5-26,72.3,65.3,50.7,45.1,41.0,38.8,80,43,31,28.27,28.21,13,4,13,0.00
2013-5-27,80.6,62.0,47.8,63.1,52.1,43.9,95,72,45,28.31,28.17,9,2,9,0.01
2013-5-28,85.1,69.7,54.5,66.4,59.8,53.4,99,74,38,28.26,28.17,12,2,12,0.00
2013-5-29,86.4,68.2,57.2,66.6,60.6,56.8,99,80,40,28.27,28.19,10,2,10,0.00
2013-5-31,87.6,79.5,66.9,64.9,62.1,60.3,84,57,44,28.19,28.15,12,3,12,0.00
2013-6-1,87.1,73.6,58.6,69.3,63.1,58.3,99,73,45,28.18,28.06,12,2,12,0.00
2013-6-2,77.4,70.7,65.3,70.0,65.8,61.9,99,85,71,28.08,27.97,16,2,16,0.14
2013-6-3,76.8,67.0,61.9,67.3,63.9,61.3,99,91,66,28.01,27.94,17,2,17,0.01
2013-6-6,68.7,66.3,64.0,67.3,65.4,63.1,99,97,94,27.95,27.89,8,3,8,0.02
2013-6-7,74.5,67.3,63.1,69.1,64.3,58.6,99,91,77,27.93,27.75,15,3,16,0.14
2013-6-8,80.6,64.9,58.1,63.9,59.8,57.6,99,85,54,28.06,27.92,11,2,11,0.25
2013-6-11,80.6,75.4,69.4,64.6,63.1,61.3,81,66,54,28.06,28.01,16,5,16,0.02
2013-6-12,89.1,76.2,62.4,72.7,67.5,61.2,98,76,50,28.07,27.97,17,3,17,0.00
2013-6-13,85.6,73.8,64.0,71.8,66.8,56.5,93,79,53,27.98,27.74,49,7,49,0.14
2013-6-14,73.8,65.1,60.8,57.4,55.6,53.6,80,72,52,28.04,27.89,18,8,18,0.00